Opslaan in favorieten
Uitgebreid zoeken
Nederlandse versie: Gratis Adivseurs Usa version: Advisors 4 Free Version franšaise: Conseils Gratuits Versione italiana: consigligratuiti.it Belgische versie: gratisadviseurs.be Versiˇn espa˝ola : Consejeros Gratis Deutsche Version: Gratis Beraten
U bevindt zich hier:Home » Recreatie » Modelbouw » Vliegtuigen
Adverteren op deze site?

Direct vraag stellen?

Stel online je vraag in de rubriek Vliegtuigen en krijg online een antwoord van de specialist in Vliegtuigen

Zelf een vraag over Vliegtuigen? Klik hier.
Meer vragen over Vliegtuigen.
De huidige beheerder van de rubriek Vliegtuigen:
Naam: Pascal
Bedrijf: Jkj
Reactiesnelheid: 78 uur
Waardering: 6.3 (van max. 10)
Meer informatie over Pascal vind je op de profielpagina.

Beheerder worden?

RSS over VliegtuigenVragen over Vliegtuigen via RSS. Klik hier.
RSS over Vliegtuigen op jouw website?Vragen over Vliegtuigen op jouw website? Klik hier.
Blijf op de hoogte via e-mail over VliegtuigenVragen over Vliegtuigen via E-mail. Klik hier.

Weersomstandigheden voor landen goed of slecht

[Gesteld op: 17-04-2014]

Toelichting:
Gazipasa Airport Turkije 06-10-2013

SA 06/10/2013 08:50-> METAR LTFG 060850Z 04014KT 360V110 CAVOK 19/01 Q1018=

SA 06/10/2013 07:50-> METAR LTFG 060750Z 05013G23KT 360V110 CAVOK 18/M00 Q1018=

SP 06/10/2013 07:36-> SPECI LTFG 060736Z 05015G26KT 010V120 CAVOK 17/M01 Q1017=

SA 06/10/2013 06:50-> METAR LTFG 060650Z 05017KT CAVOK 17/M01 Q1017=

SA 06/10/2013 05:50-> METAR LTFG 060550Z 05018G30KT CAVOK 16/M03 Q1017=

SA 06/10/2013 04:50-> METAR LTFG 060450Z 04011KT CAVOK 15/M04 Q1017=
Antwoord:

Waarom zou je dat willen weten? Ik kom alleen in turkije om op t strand te liggen ;) sorry, ben monteur, geen piloot/weerguru

 
Reactie vraagsteller:
Om die reden kom ik ook daar, heb helaas de ervaring van uuuuuuuuuren vertraging, zonder enige uitleg, niemand bij delay desk, geen snack of wat te drinken of een excuus etc. Bij terugkomst in NL navraag gedaan, nu zeggen ze dat het aan het weer lag en dat ze daarom moesten uitwijken naar een andere airport, ik heb daarna om een weerrapport gevraagd, dit is wat ze mij stuurden. Ik wil alleen maar weten of dit rapport idd iets zegt over slechte weersomstandigheden, ik ben maar een leek op dit gebied, maar voor mijn gevoel/beleving was het super mooi weer die dag, zonder vreemde omstandigheden. Graag zou ik ook weten wat die afwijkende regel betekend;
SP 06/10/2013 07:36-> SPECI LTFG 060736Z 05015G26KT 010V120 CAVOK 17/M01 Q1017=
Ik zou het erg op prijs stellen als de niet piloot/weerguru hier toch een antwoord op zou weten.
Mvg Marc
 
Antwoord Beheerder:

/

Beantwoord door:
Pascal
profielpagina


Gerelateerde vragen aan Weersomstandigheden voor landen goed of slecht:

Bedrijf verkopen,maar verhuurder wil niet meewerke
      [Gesteld in Zakelijke Dienstverlening]
2012-03-27 21:45:55
geldt het recht van voorkoop bij bouwgrond
      [Gesteld in Notaris-Belgie]
2008-09-29 18:37:27
De blokkade van Berlijn?
      [Gesteld in Geschiedenis]
2010-05-25 14:06:01
wanneer loon na ontslag?
      [Gesteld in Advocaten-Friesland]
2008-07-18 11:00:06
Van wie zijn nu de uitzendrechten van het voetbal?
      [Gesteld in Sportrecht]
2009-12-02 20:49:21

Gemiddelde score Vliegtuigen: 6.3 (33x gestemd)

Wat voor cijfer geeft u dit antwoord?

 
10

 
Versturen via e-mail aan vrienden?
 
Uw Naam:
Uw Email:
Naam bekende:
Email bekende:
+ meer vrienden invoeren
 
Message:
Check:
 



Disclaimer | Sitemap | Archief | Links | 100 laatste vragen | Populair archief

Top 3 adviseurs

  • Ron Jedema
    9.3
  • Anita
    9.0
  • Toors
    9.0
  • Totalen:

    Vragen:  257257
    Beheerders:  1021

    Gemiddelden:

    Reeds beantwoord:  99 %
    Reactiesnelheid:  172 uur
    Waardering:  7.9
Uw banner hier?

Concept & Realisatie Webshop+